sensor_id;sensor_type;location;lat;lon;timestamp;pressure;altitude;pressure_sealevel;temperature;humidity
63019;BME280;49105;46.046;10.760;2024-02-21T00:00:38;96580.97;;;4.16;60.01
63019;BME280;49105;46.046;10.760;2024-02-21T00:03:04;96573.91;;;4.16;60.06
63019;BME280;49105;46.046;10.760;2024-02-21T00:05:31;96572.41;;;3.95;61.10
63019;BME280;49105;46.046;10.760;2024-02-21T00:07:58;96571.00;;;3.86;61.64
63019;BME280;49105;46.046;10.760;2024-02-21T00:10:25;96579.47;;;3.88;61.86
63019;BME280;49105;46.046;10.760;2024-02-21T00:12:51;96569.56;;;3.90;61.39
63019;BME280;49105;46.046;10.760;2024-02-21T00:15:17;96565.13;;;3.97;61.16
63019;BME280;49105;46.046;10.760;2024-02-21T00:17:43;96570.53;;;4.03;60.84
63019;BME280;49105;46.046;10.760;2024-02-21T00:20:10;96564.09;;;3.98;60.58
63019;BME280;49105;46.046;10.760;2024-02-21T00:22:36;96561.81;;;3.64;62.00
63019;BME280;49105;46.046;10.760;2024-02-21T00:25:02;96560.25;;;3.36;63.23
63019;BME280;49105;46.046;10.760;2024-02-21T00:27:28;96555.81;;;3.37;63.45
63019;BME280;49105;46.046;10.760;2024-02-21T00:29:53;96562.66;;;3.51;63.24
63019;BME280;49105;46.046;10.760;2024-02-21T00:32:19;96564.03;;;3.60;62.73
63019;BME280;49105;46.046;10.760;2024-02-21T00:34:45;96565.84;;;3.53;63.03
63019;BME280;49105;46.046;10.760;2024-02-21T00:37:11;96556.22;;;3.47;63.08
63019;BME280;49105;46.046;10.760;2024-02-21T00:39:37;96556.22;;;3.47;63.07
63019;BME280;49105;46.046;10.760;2024-02-21T00:42:04;96553.56;;;3.54;62.55
63019;BME280;49105;46.046;10.760;2024-02-21T00:44:30;96556.19;;;3.54;62.06
63019;BME280;49105;46.046;10.760;2024-02-21T00:46:56;96560.63;;;3.53;61.93
63019;BME280;49105;46.046;10.760;2024-02-21T00:49:21;96563.28;;;3.46;61.76
63019;BME280;49105;46.046;10.760;2024-02-21T00:51:48;96570.13;;;3.34;62.06
63019;BME280;49105;46.046;10.760;2024-02-21T00:54:14;96566.28;;;3.37;62.31
63019;BME280;49105;46.046;10.760;2024-02-21T00:56:39;96570.50;;;3.44;61.73
63019;BME280;49105;46.046;10.760;2024-02-21T00:59:05;96573.75;;;3.40;61.90
63019;BME280;49105;46.046;10.760;2024-02-21T01:01:31;96569.13;;;3.42;61.39
63019;BME280;49105;46.046;10.760;2024-02-21T01:03:57;96568.69;;;3.45;61.12
63019;BME280;49105;46.046;10.760;2024-02-21T01:06:23;96565.47;;;3.49;61.00
63019;BME280;49105;46.046;10.760;2024-02-21T01:08:49;96563.69;;;3.43;60.96
63019;BME280;49105;46.046;10.760;2024-02-21T01:11:16;96564.94;;;3.21;62.31
63019;BME280;49105;46.046;10.760;2024-02-21T01:13:41;96570.56;;;3.18;62.50
63019;BME280;49105;46.046;10.760;2024-02-21T01:16:07;96558.69;;;3.22;62.21
63019;BME280;49105;46.046;10.760;2024-02-21T01:18:42;96556.25;;;3.27;62.22
63019;BME280;49105;46.046;10.760;2024-02-21T01:21:08;96548.81;;;3.17;62.32
63019;BME280;49105;46.046;10.760;2024-02-21T01:23:35;96546.00;;;3.19;62.23
63019;BME280;49105;46.046;10.760;2024-02-21T01:26:01;96543.97;;;3.28;61.85
63019;BME280;49105;46.046;10.760;2024-02-21T01:28:26;96542.59;;;3.25;61.86
63019;BME280;49105;46.046;10.760;2024-02-21T01:30:52;96546.22;;;3.11;61.94
63019;BME280;49105;46.046;10.760;2024-02-21T01:33:18;96549.84;;;2.90;62.62
63019;BME280;49105;46.046;10.760;2024-02-21T01:35:44;96559.69;;;2.81;63.04
63019;BME280;49105;46.046;10.760;2024-02-21T01:38:09;96556.09;;;2.89;63.03
63019;BME280;49105;46.046;10.760;2024-02-21T01:40:35;96547.03;;;2.98;62.82
63019;BME280;49105;46.046;10.760;2024-02-21T01:43:02;96552.25;;;3.05;62.51
63019;BME280;49105;46.046;10.760;2024-02-21T01:45:28;96539.19;;;3.05;62.34
63019;BME280;49105;46.046;10.760;2024-02-21T01:47:53;96537.78;;;3.02;62.00
63019;BME280;49105;46.046;10.760;2024-02-21T01:50:19;96536.97;;;3.02;61.98
63019;BME280;49105;46.046;10.760;2024-02-21T01:52:47;96540.38;;;2.95;62.15
63019;BME280;49105;46.046;10.760;2024-02-21T01:55:14;96542.81;;;2.97;62.12
63019;BME280;49105;46.046;10.760;2024-02-21T01:57:42;96542.81;;;2.97;62.14
63019;BME280;49105;46.046;10.760;2024-02-21T02:00:13;96539.41;;;2.96;62.39
63019;BME280;49105;46.046;10.760;2024-02-21T02:02:39;96532.53;;;2.95;61.76
63019;BME280;49105;46.046;10.760;2024-02-21T02:05:08;96525.69;;;2.94;61.54
63019;BME280;49105;46.046;10.760;2024-02-21T02:07:35;96524.06;;;3.00;61.84
63019;BME280;49105;46.046;10.760;2024-02-21T02:10:01;96526.50;;;3.02;61.68
63019;BME280;49105;46.046;10.760;2024-02-21T02:12:27;96523.09;;;3.01;61.36
63019;BME280;49105;46.046;10.760;2024-02-21T02:15:00;96523.50;;;3.05;61.37
63019;BME280;49105;46.046;10.760;2024-02-21T02:17:26;96524.91;;;2.81;61.94
63019;BME280;49105;46.046;10.760;2024-02-21T02:19:51;96532.94;;;2.53;62.91
63019;BME280;49105;46.046;10.760;2024-02-21T02:22:22;96526.69;;;2.40;63.47
63019;BME280;49105;46.046;10.760;2024-02-21T02:24:49;96527.69;;;2.46;63.39
63019;BME280;49105;46.046;10.760;2024-02-21T02:27:15;96520.47;;;2.48;63.67
63019;BME280;49105;46.046;10.760;2024-02-21T02:29:42;96524.09;;;2.47;63.22
63019;BME280;49105;46.046;10.760;2024-02-21T02:32:08;96511.41;;;2.51;63.23
63019;BME280;49105;46.046;10.760;2024-02-21T02:34:34;96517.03;;;2.54;63.23
63019;BME280;49105;46.046;10.760;2024-02-21T02:37:00;96522.47;;;2.46;62.87
63019;BME280;49105;46.046;10.760;2024-02-21T02:39:26;96521.06;;;2.43;63.34
63019;BME280;49105;46.046;10.760;2024-02-21T02:41:51;96529.50;;;2.45;63.80
63019;BME280;49105;46.046;10.760;2024-02-21T02:44:17;96523.06;;;2.55;63.39
63019;BME280;49105;46.046;10.760;2024-02-21T02:46:43;96522.50;;;2.59;62.58
63019;BME280;49105;46.046;10.760;2024-02-21T02:49:09;96517.88;;;2.68;62.15
63019;BME280;49105;46.046;10.760;2024-02-21T02:51:35;96521.69;;;2.72;62.12
63019;BME280;49105;46.046;10.760;2024-02-21T02:54:02;96521.09;;;2.70;62.25
63019;BME280;49105;46.046;10.760;2024-02-21T02:56:28;96530.91;;;2.55;61.99
63019;BME280;49105;46.046;10.760;2024-02-21T02:58:54;96531.88;;;2.34;63.15
63019;BME280;49105;46.046;10.760;2024-02-21T03:01:19;96535.69;;;2.24;63.46
63019;BME280;49105;46.046;10.760;2024-02-21T03:03:45;96534.47;;;2.20;63.71
63019;BME280;49105;46.046;10.760;2024-02-21T03:06:12;96532.06;;;2.19;63.36
63019;BME280;49105;46.046;10.760;2024-02-21T03:08:39;96537.31;;;2.19;63.08
63019;BME280;49105;46.046;10.760;2024-02-21T03:11:05;96533.47;;;2.21;63.28
63019;BME280;49105;46.046;10.760;2024-02-21T03:13:32;96521.41;;;2.20;63.31
63019;BME280;49105;46.046;10.760;2024-02-21T03:15:58;96526.25;;;2.23;62.96
63019;BME280;49105;46.046;10.760;2024-02-21T03:18:24;96524.47;;;2.31;63.21
63019;BME280;49105;46.046;10.760;2024-02-21T03:20:50;96528.28;;;2.41;62.77
63019;BME280;49105;46.046;10.760;2024-02-21T03:23:15;96521.84;;;2.37;62.46
63019;BME280;49105;46.046;10.760;2024-02-21T03:25:41;96528.09;;;2.36;62.22
63019;BME280;49105;46.046;10.760;2024-02-21T03:28:07;96515.59;;;2.25;62.40
63019;BME280;49105;46.046;10.760;2024-02-21T03:30:32;96515.13;;;2.02;63.62
63019;BME280;49105;46.046;10.760;2024-02-21T03:32:59;96508.69;;;1.97;63.40
63019;BME280;49105;46.046;10.760;2024-02-21T03:35:26;96512.50;;;1.88;64.34
63019;BME280;49105;46.046;10.760;2024-02-21T03:37:52;96518.34;;;1.90;64.64
63019;BME280;49105;46.046;10.760;2024-02-21T03:40:18;96517.75;;;1.95;64.57
63019;BME280;49105;46.046;10.760;2024-02-21T03:42:44;96522.00;;;2.03;64.38
63019;BME280;49105;46.046;10.760;2024-02-21T03:45:10;96521.78;;;2.04;63.75
63019;BME280;49105;46.046;10.760;2024-02-21T03:47:36;96522.34;;;1.93;63.67
63019;BME280;49105;46.046;10.760;2024-02-21T03:50:02;96529.59;;;1.91;64.32
63019;BME280;49105;46.046;10.760;2024-02-21T03:52:29;96531.22;;;1.98;64.08
63019;BME280;49105;46.046;10.760;2024-02-21T03:54:55;96528.59;;;2.05;63.58
63019;BME280;49105;46.046;10.760;2024-02-21T03:57:21;96528.00;;;2.10;63.31
63019;BME280;49105;46.046;10.760;2024-02-21T03:59:50;96537.88;;;2.08;63.60
63019;BME280;49105;46.046;10.760;2024-02-21T04:02:17;96525.97;;;1.92;63.86
63019;BME280;49105;46.046;10.760;2024-02-21T04:04:46;96532.91;;;1.71;64.38
63019;BME280;49105;46.046;10.760;2024-02-21T04:07:14;96528.06;;;1.68;64.85
63019;BME280;49105;46.046;10.760;2024-02-21T04:09:40;96529.91;;;1.74;64.88
63019;BME280;49105;46.046;10.760;2024-02-21T04:12:08;96530.16;;;1.86;64.59
63019;BME280;49105;46.046;10.760;2024-02-21T04:14:34;96534.41;;;1.94;63.89
63019;BME280;49105;46.046;10.760;2024-02-21T04:17:00;96527.19;;;1.96;64.23
63019;BME280;49105;46.046;10.760;2024-02-21T04:19:26;96523.81;;;2.02;63.45
63019;BME280;49105;46.046;10.760;2024-02-21T04:21:52;96518.97;;;2.06;63.66
63019;BME280;49105;46.046;10.760;2024-02-21T04:24:18;96523.22;;;2.07;63.16
63019;BME280;49105;46.046;10.760;2024-02-21T04:26:44;96514.75;;;2.05;62.95
63019;BME280;49105;46.046;10.760;2024-02-21T04:29:11;96518.59;;;2.15;62.66
63019;BME280;49105;46.046;10.760;2024-02-21T04:31:37;96522.16;;;1.94;62.81
63019;BME280;49105;46.046;10.760;2024-02-21T04:34:03;96541.09;;;1.62;64.29
63019;BME280;49105;46.046;10.760;2024-02-21T04:36:28;96540.63;;;1.45;65.03
63019;BME280;49105;46.046;10.760;2024-02-21T04:38:55;96550.84;;;1.46;65.02
63019;BME280;49105;46.046;10.760;2024-02-21T04:41:21;96553.53;;;1.60;64.74
63019;BME280;49105;46.046;10.760;2024-02-21T04:43:47;96557.19;;;1.65;64.39
63019;BME280;49105;46.046;10.760;2024-02-21T04:46:13;96552.41;;;1.76;64.14
63019;BME280;49105;46.046;10.760;2024-02-21T04:48:39;96556.59;;;1.70;63.41
63019;BME280;49105;46.046;10.760;2024-02-21T04:51:05;96560.81;;;1.71;63.98
63019;BME280;49105;46.046;10.760;2024-02-21T04:53:31;96550.38;;;1.71;63.69
63019;BME280;49105;46.046;10.760;2024-02-21T04:55:57;96554.56;;;1.65;63.99
63019;BME280;49105;46.046;10.760;2024-02-21T04:58:24;96555.69;;;1.49;65.14
63019;BME280;49105;46.046;10.760;2024-02-21T05:00:49;96568.66;;;1.36;65.32
63019;BME280;49105;46.046;10.760;2024-02-21T05:03:15;96559.22;;;1.35;65.22
63019;BME280;49105;46.046;10.760;2024-02-21T05:05:42;96566.28;;;1.41;65.25
63019;BME280;49105;46.046;10.760;2024-02-21T05:08:07;96564.38;;;1.57;64.78
63019;BME280;49105;46.046;10.760;2024-02-21T05:10:35;96549.16;;;1.67;64.20
63019;BME280;49105;46.046;10.760;2024-02-21T05:13:01;96549.56;;;1.70;64.02
63019;BME280;49105;46.046;10.760;2024-02-21T05:15:26;96545.31;;;1.63;63.89
63019;BME280;49105;46.046;10.760;2024-02-21T05:17:52;96546.91;;;1.57;64.56
63019;BME280;49105;46.046;10.760;2024-02-21T05:20:18;96552.72;;;1.59;63.94
63019;BME280;49105;46.046;10.760;2024-02-21T05:22:43;96557.22;;;1.37;65.21
63019;BME280;49105;46.046;10.760;2024-02-21T05:25:09;96557.00;;;1.32;65.22
63019;BME280;49105;46.046;10.760;2024-02-21T05:27:36;96557.38;;;1.29;65.45
63019;BME280;49105;46.046;10.760;2024-02-21T05:30:04;96555.63;;;1.36;65.22
63019;BME280;49105;46.046;10.760;2024-02-21T05:32:31;96555.44;;;1.38;64.58
63019;BME280;49105;46.046;10.760;2024-02-21T05:34:57;96551.38;;;1.35;65.12
63019;BME280;49105;46.046;10.760;2024-02-21T05:37:23;96545.38;;;1.35;65.00
63019;BME280;49105;46.046;10.760;2024-02-21T05:39:49;96551.00;;;1.38;65.00
63019;BME280;49105;46.046;10.760;2024-02-21T05:42:15;96548.53;;;1.23;64.87
63019;BME280;49105;46.046;10.760;2024-02-21T05:44:41;96543.63;;;1.14;65.20
63019;BME280;49105;46.046;10.760;2024-02-21T05:47:07;96542.63;;;1.15;65.14
63019;BME280;49105;46.046;10.760;2024-02-21T05:49:35;96539.84;;;1.16;65.55
63019;BME280;49105;46.046;10.760;2024-02-21T05:52:02;96544.13;;;1.24;65.35
63019;BME280;49105;46.046;10.760;2024-02-21T05:54:27;96537.53;;;1.28;64.74
63019;BME280;49105;46.046;10.760;2024-02-21T05:56:52;96543.72;;;1.27;64.12
63019;BME280;49105;46.046;10.760;2024-02-21T05:59:18;96541.72;;;1.29;64.04
63019;BME280;49105;46.046;10.760;2024-02-21T06:01:45;96548.97;;;1.34;64.21
63019;BME280;49105;46.046;10.760;2024-02-21T06:04:11;96548.25;;;1.46;63.76
63019;BME280;49105;46.046;10.760;2024-02-21T06:06:37;96538.28;;;1.57;63.23
63019;BME280;49105;46.046;10.760;2024-02-21T06:09:02;96539.25;;;1.56;63.26
63019;BME280;49105;46.046;10.760;2024-02-21T06:11:28;96543.59;;;1.42;63.79
63019;BME280;49105;46.046;10.760;2024-02-21T06:13:54;96538.75;;;1.32;63.88
63019;BME280;49105;46.046;10.760;2024-02-21T06:16:20;96541.53;;;1.31;64.11
63019;BME280;49105;46.046;10.760;2024-02-21T06:18:46;96542.75;;;1.28;65.08
63019;BME280;49105;46.046;10.760;2024-02-21T06:21:12;96545.44;;;1.13;65.28
63019;BME280;49105;46.046;10.760;2024-02-21T06:23:38;96559.66;;;1.11;65.73
63019;BME280;49105;46.046;10.760;2024-02-21T06:26:05;96551.03;;;1.10;65.85
63019;BME280;49105;46.046;10.760;2024-02-21T06:28:31;96561.50;;;1.17;65.82
63019;BME280;49105;46.046;10.760;2024-02-21T06:30:57;96558.13;;;1.23;65.41
63019;BME280;49105;46.046;10.760;2024-02-21T06:33:23;96555.34;;;1.24;64.79
63019;BME280;49105;46.046;10.760;2024-02-21T06:35:50;96559.34;;;1.27;64.71
63019;BME280;49105;46.046;10.760;2024-02-21T06:38:18;96556.38;;;1.30;64.93
63019;BME280;49105;46.046;10.760;2024-02-21T06:40:44;96554.19;;;1.34;64.79
63019;BME280;49105;46.046;10.760;2024-02-21T06:43:16;96550.78;;;1.33;64.68
63019;BME280;49105;46.046;10.760;2024-02-21T06:45:43;96552.16;;;1.29;64.75
63019;BME280;49105;46.046;10.760;2024-02-21T06:48:12;96559.50;;;1.19;64.92
63019;BME280;49105;46.046;10.760;2024-02-21T06:50:38;96565.34;;;1.21;65.27
63019;BME280;49105;46.046;10.760;2024-02-21T06:53:04;96563.59;;;1.28;64.90
63019;BME280;49105;46.046;10.760;2024-02-21T06:55:30;96573.47;;;1.39;65.07
63019;BME280;49105;46.046;10.760;2024-02-21T06:57:56;96578.75;;;1.46;64.89
63019;BME280;49105;46.046;10.760;2024-02-21T07:00:22;96582.75;;;1.42;63.87
63019;BME280;49105;46.046;10.760;2024-02-21T07:02:48;96577.94;;;1.45;64.42
63019;BME280;49105;46.046;10.760;2024-02-21T07:05:15;96579.19;;;1.49;64.36
63019;BME280;49105;46.046;10.760;2024-02-21T07:07:41;96575.13;;;1.47;64.53
63019;BME280;49105;46.046;10.760;2024-02-21T07:10:07;96568.88;;;1.41;64.83
63019;BME280;49105;46.046;10.760;2024-02-21T07:12:34;96566.28;;;1.41;64.80
63019;BME280;49105;46.046;10.760;2024-02-21T07:15:01;96573.47;;;1.33;65.11
63019;BME280;49105;46.046;10.760;2024-02-21T07:17:26;96578.03;;;1.24;65.51
63019;BME280;49105;46.046;10.760;2024-02-21T07:19:53;96580.63;;;1.24;65.42
63019;BME280;49105;46.046;10.760;2024-02-21T07:22:22;96580.63;;;1.24;65.54
63019;BME280;49105;46.046;10.760;2024-02-21T07:24:48;96583.47;;;1.29;65.45
63019;BME280;49105;46.046;10.760;2024-02-21T07:27:15;96587.75;;;1.43;65.04
63019;BME280;49105;46.046;10.760;2024-02-21T07:29:41;96595.19;;;1.46;64.65
63019;BME280;49105;46.046;10.760;2024-02-21T07:32:07;96599.00;;;1.44;64.83
63019;BME280;49105;46.046;10.760;2024-02-21T07:34:32;96599.75;;;1.38;64.89
63019;BME280;49105;46.046;10.760;2024-02-21T07:36:59;96590.75;;;1.40;64.75
63019;BME280;49105;46.046;10.760;2024-02-21T07:39:28;96586.00;;;1.51;65.46
63019;BME280;49105;46.046;10.760;2024-02-21T07:41:55;96590.78;;;1.47;65.38
63019;BME280;49105;46.046;10.760;2024-02-21T07:44:22;96588.81;;;1.56;65.70
63019;BME280;49105;46.046;10.760;2024-02-21T07:46:47;96590.91;;;1.67;64.94
63019;BME280;49105;46.046;10.760;2024-02-21T07:49:13;96601.03;;;1.83;64.74
63019;BME280;49105;46.046;10.760;2024-02-21T07:51:40;96604.13;;;2.00;65.13
63019;BME280;49105;46.046;10.760;2024-02-21T07:54:05;96602.59;;;2.19;64.63
63019;BME280;49105;46.046;10.760;2024-02-21T07:56:32;96594.59;;;2.27;64.14
63019;BME280;49105;46.046;10.760;2024-02-21T07:58:58;96596.59;;;2.38;63.20
63019;BME280;49105;46.046;10.760;2024-02-21T08:01:23;96591.63;;;2.50;63.08
63019;BME280;49105;46.046;10.760;2024-02-21T08:03:49;96586.59;;;2.48;61.92
63019;BME280;49105;46.046;10.760;2024-02-21T08:06:16;96591.97;;;2.27;63.21
63019;BME280;49105;46.046;10.760;2024-02-21T08:08:41;96596.91;;;2.02;63.62
63019;BME280;49105;46.046;10.760;2024-02-21T08:11:07;96587.03;;;1.97;64.58
63019;BME280;49105;46.046;10.760;2024-02-21T08:13:33;96579.25;;;2.11;64.02
63019;BME280;49105;46.046;10.760;2024-02-21T08:15:59;96567.06;;;2.31;63.82
63019;BME280;49105;46.046;10.760;2024-02-21T08:18:26;96560.66;;;2.40;63.18
63019;BME280;49105;46.046;10.760;2024-02-21T08:20:52;96557.03;;;2.41;62.46
63019;BME280;49105;46.046;10.760;2024-02-21T08:23:18;96546.59;;;2.55;62.60
63019;BME280;49105;46.046;10.760;2024-02-21T08:25:44;96548.84;;;2.64;62.40
63019;BME280;49105;46.046;10.760;2024-02-21T08:28:10;96555.47;;;2.80;62.34
63019;BME280;49105;46.046;10.760;2024-02-21T08:30:36;96542.59;;;2.92;62.16
63019;BME280;49105;46.046;10.760;2024-02-21T08:33:02;96541.81;;;3.05;61.54
63019;BME280;49105;46.046;10.760;2024-02-21T08:35:29;96541.38;;;3.21;60.84
63019;BME280;49105;46.046;10.760;2024-02-21T08:37:55;96541.78;;;3.18;60.24
63019;BME280;49105;46.046;10.760;2024-02-21T08:40:21;96528.94;;;2.90;60.77
63019;BME280;49105;46.046;10.760;2024-02-21T08:42:47;96542.81;;;2.77;61.64
63019;BME280;49105;46.046;10.760;2024-02-21T08:45:13;96542.59;;;2.92;61.93
63019;BME280;49105;46.046;10.760;2024-02-21T08:47:41;96539.75;;;3.20;61.39
63019;BME280;49105;46.046;10.760;2024-02-21T08:50:08;96545.97;;;3.39;60.49
63019;BME280;49105;46.046;10.760;2024-02-21T08:52:37;96540.25;;;3.62;60.37
63019;BME280;49105;46.046;10.760;2024-02-21T08:55:03;96533.13;;;3.95;60.12
63019;BME280;49105;46.046;10.760;2024-02-21T08:57:29;96524.28;;;4.28;59.63
63019;BME280;49105;46.046;10.760;2024-02-21T09:00:05;96522.66;;;4.59;59.01
63019;BME280;49105;46.046;10.760;2024-02-21T09:02:51;96524.16;;;4.73;57.57
63019;BME280;49105;46.046;10.760;2024-02-21T09:05:17;96507.22;;;4.76;57.00
63019;BME280;49105;46.046;10.760;2024-02-21T09:07:42;96515.03;;;4.57;56.78
63019;BME280;49105;46.046;10.760;2024-02-21T09:10:08;96508.63;;;4.46;57.31
63019;BME280;49105;46.046;10.760;2024-02-21T09:12:34;96509.44;;;4.47;57.06
63019;BME280;49105;46.046;10.760;2024-02-21T09:15:01;96509.41;;;4.54;56.84
63019;BME280;49105;46.046;10.760;2024-02-21T09:17:28;96496.75;;;4.69;56.90
63019;BME280;49105;46.046;10.760;2024-02-21T09:19:54;96493.44;;;4.80;56.26
63019;BME280;49105;46.046;10.760;2024-02-21T09:22:21;96493.50;;;4.98;55.33
63019;BME280;49105;46.046;10.760;2024-02-21T09:24:47;96486.16;;;5.26;53.97
63019;BME280;49105;46.046;10.760;2024-02-21T09:27:13;96485.00;;;5.58;53.91
63019;BME280;49105;46.046;10.760;2024-02-21T09:29:39;96482.94;;;5.79;53.65
63019;BME280;49105;46.046;10.760;2024-02-21T09:32:05;96475.44;;;5.82;52.66
63019;BME280;49105;46.046;10.760;2024-02-21T09:34:31;96478.50;;;5.79;52.68
63019;BME280;49105;46.046;10.760;2024-02-21T09:36:58;96470.63;;;5.79;52.75
63019;BME280;49105;46.046;10.760;2024-02-21T09:39:24;96464.91;;;5.82;52.90
63019;BME280;49105;46.046;10.760;2024-02-21T09:41:53;96470.53;;;5.86;52.16
63019;BME280;49105;46.046;10.760;2024-02-21T09:44:24;96452.72;;;5.88;52.03
63019;BME280;49105;46.046;10.760;2024-02-21T09:47:02;96451.47;;;5.90;51.62
63019;BME280;49105;46.046;10.760;2024-02-21T09:49:31;96447.25;;;5.89;51.39
63019;BME280;49105;46.046;10.760;2024-02-21T09:52:04;96443.19;;;5.93;51.60
63019;BME280;49105;46.046;10.760;2024-02-21T09:54:35;96440.81;;;6.04;51.46
63019;BME280;49105;46.046;10.760;2024-02-21T09:57:02;96438.91;;;6.11;50.35
63019;BME280;49105;46.046;10.760;2024-02-21T09:59:28;96438.34;;;6.20;50.26
63019;BME280;49105;46.046;10.760;2024-02-21T10:01:55;96439.19;;;6.33;50.05
63019;BME280;49105;46.046;10.760;2024-02-21T10:04:21;96436.81;;;6.43;49.59
63019;BME280;49105;46.046;10.760;2024-02-21T10:06:47;96433.38;;;6.54;49.41
63019;BME280;49105;46.046;10.760;2024-02-21T10:09:23;96433.88;;;6.63;48.42
63019;BME280;49105;46.046;10.760;2024-02-21T10:11:50;96440.16;;;6.74;47.53
63019;BME280;49105;46.046;10.760;2024-02-21T10:14:16;96437.31;;;6.75;46.05
63019;BME280;49105;46.046;10.760;2024-02-21T10:16:42;96432.72;;;6.82;45.54
63019;BME280;49105;46.046;10.760;2024-02-21T10:19:19;96434.56;;;6.93;46.32
63019;BME280;49105;46.046;10.760;2024-02-21T10:22:02;96421.16;;;7.07;46.60
63019;BME280;49105;46.046;10.760;2024-02-21T10:24:33;96417.16;;;7.16;46.58
63019;BME280;49105;46.046;10.760;2024-02-21T10:27:01;96418.38;;;7.25;46.06
63019;BME280;49105;46.046;10.760;2024-02-21T10:29:29;96411.59;;;7.41;45.35
63019;BME280;49105;46.046;10.760;2024-02-21T10:32:10;96406.97;;;7.60;44.45
63019;BME280;49105;46.046;10.760;2024-02-21T10:34:37;96407.63;;;7.67;43.53
63019;BME280;49105;46.046;10.760;2024-02-21T10:37:04;96398.13;;;7.66;43.82
63019;BME280;49105;46.046;10.760;2024-02-21T10:39:34;96395.81;;;7.69;44.90
63019;BME280;49105;46.046;10.760;2024-02-21T10:42:01;96389.13;;;7.79;44.73
63019;BME280;49105;46.046;10.760;2024-02-21T10:44:39;96391.41;;;7.87;45.17
63019;BME280;49105;46.046;10.760;2024-02-21T10:47:08;96379.66;;;7.94;44.78
63019;BME280;49105;46.046;10.760;2024-02-21T10:49:38;96367.91;;;8.02;43.53
63019;BME280;49105;46.046;10.760;2024-02-21T10:52:26;96362.25;;;8.10;44.06
63019;BME280;49105;46.046;10.760;2024-02-21T10:55:02;96352.22;;;8.24;43.70
63019;BME280;49105;46.046;10.760;2024-02-21T10:57:29;96346.16;;;8.40;43.89
63019;BME280;49105;46.046;10.760;2024-02-21T10:59:58;96345.84;;;8.54;44.25
63019;BME280;49105;46.046;10.760;2024-02-21T11:02:26;96341.41;;;8.59;44.37
63019;BME280;49105;46.046;10.760;2024-02-21T11:04:54;96325.91;;;8.63;44.36
63019;BME280;49105;46.046;10.760;2024-02-21T11:07:21;96329.97;;;8.70;44.45
63019;BME280;49105;46.046;10.760;2024-02-21T11:09:51;96314.56;;;8.84;44.21
63019;BME280;49105;46.046;10.760;2024-02-21T11:12:21;96311.59;;;8.98;44.42
63019;BME280;49105;46.046;10.760;2024-02-21T11:14:47;96303.25;;;9.06;44.77
63019;BME280;49105;46.046;10.760;2024-02-21T11:17:20;96299.91;;;9.15;44.69
63019;BME280;49105;46.046;10.760;2024-02-21T11:19:52;96296.56;;;9.25;44.05
63019;BME280;49105;46.046;10.760;2024-02-21T11:22:19;96299.56;;;9.34;44.01
63019;BME280;49105;46.046;10.760;2024-02-21T11:24:46;96291.47;;;9.40;43.49
63019;BME280;49105;46.046;10.760;2024-02-21T11:27:20;96299.75;;;9.49;43.60
63019;BME280;49105;46.046;10.760;2024-02-21T11:29:46;96282.16;;;9.60;41.64
63019;BME280;49105;46.046;10.760;2024-02-21T11:32:16;96284.56;;;9.66;41.19
63019;BME280;49105;46.046;10.760;2024-02-21T11:35:03;96272.75;;;9.74;41.10
63019;BME280;49105;46.046;10.760;2024-02-21T11:37:34;96268.06;;;9.81;40.96
63019;BME280;49105;46.046;10.760;2024-02-21T11:40:02;96267.59;;;9.89;40.49
63019;BME280;49105;46.046;10.760;2024-02-21T11:42:29;96269.53;;;9.99;39.27
63019;BME280;49105;46.046;10.760;2024-02-21T11:44:56;96269.06;;;10.07;40.11
63019;BME280;49105;46.046;10.760;2024-02-21T11:47:23;96255.06;;;10.12;39.74
63019;BME280;49105;46.046;10.760;2024-02-21T11:49:50;96251.69;;;10.16;39.00
63019;BME280;49105;46.046;10.760;2024-02-21T11:52:22;96249.31;;;10.20;38.44
63019;BME280;49105;46.046;10.760;2024-02-21T11:54:51;96245.19;;;10.29;38.25
63019;BME280;49105;46.046;10.760;2024-02-21T11:57:18;96239.41;;;10.37;38.58
63019;BME280;49105;46.046;10.760;2024-02-21T11:59:46;96234.97;;;10.48;37.76
63019;BME280;49105;46.046;10.760;2024-02-21T12:02:12;96224.16;;;10.55;37.61
63019;BME280;49105;46.046;10.760;2024-02-21T12:04:38;96211.72;;;10.60;37.81
63019;BME280;49105;46.046;10.760;2024-02-21T12:07:04;96214.16;;;10.67;37.84
63019;BME280;49105;46.046;10.760;2024-02-21T12:09:31;96194.59;;;10.78;37.29
63019;BME280;49105;46.046;10.760;2024-02-21T12:12:04;96199.13;;;10.83;37.32
63019;BME280;49105;46.046;10.760;2024-02-21T12:14:31;96194.13;;;10.91;36.88
63019;BME280;49105;46.046;10.760;2024-02-21T12:16:56;96186.47;;;11.00;36.15
63019;BME280;49105;46.046;10.760;2024-02-21T12:19:22;96184.38;;;11.07;36.15
63019;BME280;49105;46.046;10.760;2024-02-21T12:21:49;96174.03;;;11.16;35.55
63019;BME280;49105;46.046;10.760;2024-02-21T12:24:25;96170.88;;;11.24;36.18
63019;BME280;49105;46.046;10.760;2024-02-21T12:26:56;96166.91;;;11.32;36.00
63019;BME280;49105;46.046;10.760;2024-02-21T12:29:22;96165.06;;;11.37;36.15
63019;BME280;49105;46.046;10.760;2024-02-21T12:31:50;96153.66;;;11.42;35.31
63019;BME280;49105;46.046;10.760;2024-02-21T12:34:16;96161.59;;;11.47;35.54
63019;BME280;49105;46.046;10.760;2024-02-21T12:36:43;96145.97;;;11.51;34.69
63019;BME280;49105;46.046;10.760;2024-02-21T12:39:10;96145.16;;;11.55;34.26
63019;BME280;49105;46.046;10.760;2024-02-21T12:41:36;96132.19;;;11.59;34.10
63019;BME280;49105;46.046;10.760;2024-02-21T12:44:10;96136.97;;;11.62;34.18
63019;BME280;49105;46.046;10.760;2024-02-21T12:46:36;96138.00;;;11.66;34.08
63019;BME280;49105;46.046;10.760;2024-02-21T12:49:03;96131.63;;;11.72;34.74
63019;BME280;49105;46.046;10.760;2024-02-21T12:51:29;96122.09;;;11.76;34.55
63019;BME280;49105;46.046;10.760;2024-02-21T12:53:56;96124.75;;;11.81;34.55
63019;BME280;49105;46.046;10.760;2024-02-21T12:56:21;96118.91;;;11.84;33.52
63019;BME280;49105;46.046;10.760;2024-02-21T12:58:47;96105.13;;;11.87;33.08